createdAt,value
2023-04-09T00:00:41.451Z,95847.78
2023-04-09T00:03:08.268Z,95852.16
2023-04-09T00:05:41.338Z,95844.63
2023-04-09T00:08:08.083Z,95840.34
2023-04-09T00:10:34.899Z,95838.81
2023-04-09T00:13:01.465Z,95839.25
2023-04-09T00:15:31.063Z,95835.81
2023-04-09T00:17:58.651Z,95837.47
2023-04-09T00:20:25.368Z,95839.66
2023-04-09T00:22:52.252Z,95837.88
2023-04-09T00:25:19.979Z,95838.44
2023-04-09T00:27:46.959Z,95831.25
2023-04-09T00:30:13.661Z,95832.50
2023-04-09T00:32:40.355Z,95815.84
2023-04-09T00:35:07.177Z,95826.03
2023-04-09T00:37:33.953Z,95832.22
2023-04-09T00:40:00.895Z,95826.03
2023-04-09T00:42:27.424Z,95823.44
2023-04-09T00:44:53.964Z,95823.44
2023-04-09T00:47:20.693Z,95827.56
2023-04-09T00:49:47.323Z,95824.09
2023-04-09T00:52:13.933Z,95836.94
2023-04-09T00:54:40.620Z,95832.38
2023-04-09T00:57:07.236Z,95829.34
2023-04-09T00:59:33.875Z,95830.44
2023-04-09T01:02:00.624Z,95830.03
2023-04-09T01:04:27.276Z,95830.56
2023-04-09T01:07:04.687Z,95825.91
2023-04-09T01:09:36.436Z,95827.91
2023-04-09T01:12:16.067Z,95824.38
2023-04-09T01:15:11.257Z,95835.00
2023-04-09T01:18:30.132Z,95821.91
2023-04-09T01:21:06.019Z,95814.47
2023-04-09T01:24:01.345Z,95820.94
2023-04-09T01:26:57.031Z,95820.28
2023-04-09T01:29:31.420Z,95810.75
2023-04-09T01:31:59.288Z,95818.88
2023-04-09T01:34:27.053Z,95816.53
2023-04-09T01:36:56.893Z,95819.16
2023-04-09T01:39:24.030Z,95819.16
2023-04-09T01:41:51.454Z,95820.53
2023-04-09T01:44:19.691Z,95826.72
2023-04-09T01:46:48.253Z,95823.53
2023-04-09T01:49:15.949Z,95824.78
2023-04-09T01:51:43.102Z,95818.03
2023-04-09T01:54:09.720Z,95823.44
2023-04-09T01:56:47.624Z,95831.25
2023-04-09T01:59:15.624Z,95828.50
2023-04-09T02:01:47.386Z,95825.22
2023-04-09T02:04:23.856Z,95828.38
2023-04-09T02:07:10.094Z,95830.44
2023-04-09T02:09:39.255Z,95832.91
2023-04-09T02:12:09.629Z,95827.69
2023-04-09T02:14:38.831Z,95823.97
2023-04-09T02:17:05.808Z,95825.75
2023-04-09T02:19:43.313Z,95827.25
2023-04-09T02:22:10.758Z,95821.75
2023-04-09T02:24:37.606Z,95821.47
2023-04-09T02:27:04.789Z,95817.72
2023-04-09T02:29:31.534Z,95818.84
2023-04-09T02:31:58.211Z,95815.81
2023-04-09T02:34:25.412Z,95818.72
2023-04-09T02:36:52.113Z,95809.78
2023-04-09T02:39:18.840Z,95822.03
2023-04-09T02:41:45.454Z,95819.00
2023-04-09T02:44:11.982Z,95816.09
2023-04-09T02:46:39.652Z,95827.81
2023-04-09T02:49:06.221Z,95819.97
2023-04-09T02:51:35.293Z,95812.81
2023-04-09T02:54:02.189Z,95813.06
2023-04-09T02:56:28.914Z,95815.13
2023-04-09T02:58:55.510Z,95806.84
2023-04-09T03:01:22.243Z,95809.75
2023-04-09T03:03:49.115Z,95809.34
2023-04-09T03:06:15.879Z,95816.50
2023-04-09T03:08:42.407Z,95805.06
2023-04-09T03:11:08.926Z,95807.75
2023-04-09T03:13:35.565Z,95803.16
2023-04-09T03:16:02.206Z,95807.53
2023-04-09T03:18:28.846Z,95806.09
2023-04-09T03:20:55.456Z,95799.50
2023-04-09T03:23:22.130Z,95794.03
2023-04-09T03:25:49.582Z,95800.78
2023-04-09T03:28:17.567Z,95805.56
2023-04-09T03:30:51.240Z,95799.50
2023-04-09T03:33:19.494Z,95792.94
2023-04-09T03:35:50.737Z,95800.38
2023-04-09T03:38:23.171Z,95801.75
2023-04-09T03:40:50.399Z,95800.09
2023-04-09T03:43:16.976Z,95798.19
2023-04-09T03:45:48.981Z,95805.19
2023-04-09T03:48:22.602Z,95801.06
2023-04-09T03:50:50.338Z,95807.69
2023-04-09T03:53:24.047Z,95800.22
2023-04-09T03:55:50.856Z,95812.16
2023-04-09T03:58:23.295Z,95818.75
2023-04-09T04:00:50.106Z,95816.41
2023-04-09T04:03:31.824Z,95829.53
2023-04-09T04:06:19.795Z,95827.34
2023-04-09T04:08:54.725Z,95831.25
2023-04-09T04:11:26.753Z,95830.28
2023-04-09T04:13:55.952Z,95838.97
2023-04-09T04:16:23.841Z,95836.69
2023-04-09T04:18:51.425Z,95840.19
2023-04-09T04:21:18.361Z,95845.69
2023-04-09T04:23:50.180Z,95836.41
2023-04-09T04:26:20.759Z,95831.88
2023-04-09T04:28:47.306Z,95837.41
2023-04-09T04:31:25.105Z,95834.50
2023-04-09T04:33:52.471Z,95845.88
2023-04-09T04:36:19.236Z,95849.03
2023-04-09T04:38:48.435Z,95848.28
2023-04-09T04:41:25.724Z,95846.69
2023-04-09T04:44:02.857Z,95849.44
2023-04-09T04:46:29.477Z,95839.38
2023-04-09T04:48:56.050Z,95836.53
2023-04-09T04:51:22.876Z,95840.91
2023-04-09T04:54:00.985Z,95846.44
2023-04-09T04:56:27.985Z,95840.00
2023-04-09T04:59:02.954Z,95838.22
2023-04-09T05:01:37.268Z,95834.66
2023-04-09T05:04:08.048Z,95824.88
2023-04-09T05:06:36.832Z,95822.34
2023-04-09T05:09:07.640Z,95818.81
2023-04-09T05:11:41.409Z,95822.81
2023-04-09T05:14:14.010Z,95825.00
2023-04-09T05:16:40.838Z,95834.44
2023-04-09T05:19:07.680Z,95849.50
2023-04-09T05:21:34.249Z,95853.72
2023-04-09T05:24:02.379Z,95859.56
2023-04-09T05:26:31.838Z,95858.59
2023-04-09T05:28:58.807Z,95853.38
2023-04-09T05:31:26.151Z,95868.22
2023-04-09T05:34:06.471Z,95862.19
2023-04-09T05:36:39.730Z,95869.13
2023-04-09T05:39:06.283Z,95871.72
2023-04-09T05:41:33.495Z,95867.06
2023-04-09T05:44:22.135Z,95863.78
2023-04-09T05:46:50.930Z,95868.34
2023-04-09T05:49:22.170Z,95864.56
2023-04-09T05:51:51.892Z,95864.28
2023-04-09T05:54:24.373Z,95867.75
2023-04-09T05:56:52.374Z,95863.44
2023-04-09T05:59:19.473Z,95864.56
2023-04-09T06:01:46.191Z,95860.84
2023-04-09T06:04:12.872Z,95856.91
2023-04-09T06:06:39.596Z,95860.47
2023-04-09T06:09:06.163Z,95861.16
2023-04-09T06:11:33.425Z,95858.41
2023-04-09T06:14:00.386Z,95854.00
2023-04-09T06:16:27.182Z,95861.75
2023-04-09T06:18:54.526Z,95859.94
2023-04-09T06:21:21.090Z,95852.50
2023-04-09T06:23:47.675Z,95862.28
2023-04-09T06:26:14.277Z,95860.47
2023-04-09T06:28:40.903Z,95867.78
2023-04-09T06:31:07.436Z,95874.78
2023-04-09T06:33:33.992Z,95879.19
2023-04-09T06:36:00.693Z,95878.53
2023-04-09T06:38:27.253Z,95885.94
2023-04-09T06:40:56.839Z,95890.19
2023-04-09T06:43:23.448Z,95885.50
2023-04-09T06:45:52.020Z,95885.47
2023-04-09T06:48:18.564Z,95886.53
2023-04-09T06:50:45.541Z,95880.72
2023-04-09T06:53:12.198Z,95885.78
2023-04-09T06:55:38.725Z,95888.91
2023-04-09T06:58:05.680Z,95889.28
2023-04-09T07:00:32.312Z,95894.53
2023-04-09T07:02:59.217Z,95895.22
2023-04-09T07:05:26.250Z,95888.41
2023-04-09T07:07:52.838Z,95876.88
2023-04-09T07:10:19.422Z,95885.56
2023-04-09T07:12:45.907Z,95884.25
2023-04-09T07:15:12.522Z,95879.22
2023-04-09T07:17:39.161Z,95887.91
2023-04-09T07:20:06.205Z,95880.41
2023-04-09T07:22:32.730Z,95884.25
2023-04-09T07:24:59.554Z,95885.97
2023-04-09T07:27:27.778Z,95890.41
2023-04-09T07:29:56.188Z,95888.06
2023-04-09T07:32:23.566Z,95890.00
2023-04-09T07:34:54.258Z,95884.16
2023-04-09T07:37:21.073Z,95890.81
2023-04-09T07:39:48.008Z,95885.22
2023-04-09T07:42:14.589Z,95889.38
2023-04-09T07:44:41.122Z,95887.91
2023-04-09T07:47:08.292Z,95886.19
2023-04-09T07:49:38.402Z,95885.47
2023-04-09T07:52:06.619Z,95893.66
2023-04-09T07:54:34.116Z,95893.19
2023-04-09T07:57:04.092Z,95890.16
2023-04-09T07:59:31.640Z,95889.50
2023-04-09T08:01:58.892Z,95886.09
2023-04-09T08:04:25.736Z,95892.00
2023-04-09T08:06:53.546Z,95888.47
2023-04-09T08:09:21.216Z,95892.09
2023-04-09T08:11:48.418Z,95891.81
2023-04-09T08:14:16.137Z,95883.78
2023-04-09T08:16:47.646Z,95889.78
2023-04-09T08:19:16.257Z,95883.88
2023-04-09T08:21:43.807Z,95885.03
2023-04-09T08:24:11.845Z,95888.03
2023-04-09T08:26:39.932Z,95898.09
2023-04-09T08:29:07.339Z,95892.75
2023-04-09T08:31:34.742Z,95890.13
2023-04-09T08:34:01.305Z,95904.44
2023-04-09T08:36:27.973Z,95899.66
2023-04-09T08:38:56.498Z,95896.88
2023-04-09T08:41:25.409Z,95899.44
2023-04-09T08:43:58.439Z,95897.78
2023-04-09T08:46:26.724Z,95906.19
2023-04-09T08:48:53.645Z,95899.16
2023-04-09T08:51:22.249Z,95911.50
2023-04-09T08:54:04.469Z,95913.09
2023-04-09T08:56:31.954Z,95905.91
2023-04-09T08:58:58.650Z,95902.44
2023-04-09T09:01:33.203Z,95894.19
2023-04-09T09:04:05.451Z,95891.25
2023-04-09T09:06:37.478Z,95888.75
2023-04-09T09:09:11.956Z,95896.16
2023-04-09T09:11:43.650Z,95899.19
2023-04-09T09:14:11.294Z,95888.78
2023-04-09T09:17:05.029Z,95902.34
2023-04-09T09:19:37.146Z,95896.72
2023-04-09T09:22:07.889Z,95898.75
2023-04-09T09:24:34.901Z,95893.63
2023-04-09T09:27:02.458Z,95886.34
2023-04-09T09:29:29.308Z,95898.03
2023-04-09T09:31:56.604Z,95896.38
2023-04-09T09:34:24.545Z,95891.28
2023-04-09T09:36:51.087Z,95889.88
2023-04-09T09:39:17.837Z,95895.19
2023-04-09T09:41:46.035Z,95895.34
2023-04-09T09:44:29.939Z,95903.53
2023-04-09T09:46:57.493Z,95903.19
2023-04-09T09:49:24.052Z,95896.22
2023-04-09T09:51:52.019Z,95893.63
2023-04-09T09:54:23.315Z,95899.31
2023-04-09T09:56:52.833Z,95904.91
2023-04-09T09:59:29.627Z,95902.25
2023-04-09T10:02:04.404Z,95898.13
2023-04-09T10:04:35.740Z,95893.75
2023-04-09T10:07:05.752Z,95898.75
2023-04-09T10:09:35.461Z,95914.91
2023-04-09T10:12:04.880Z,95916.66
2023-04-09T10:14:31.559Z,95898.63
2023-04-09T10:16:58.337Z,95893.19
2023-04-09T10:19:25.169Z,95891.88
2023-04-09T10:22:01.858Z,95898.59
2023-04-09T10:24:28.401Z,95898.16
2023-04-09T10:26:55.564Z,95892.59
2023-04-09T10:29:29.108Z,95893.94
2023-04-09T10:32:07.864Z,95888.66
2023-04-09T10:34:43.388Z,95896.69
2023-04-09T10:37:14.859Z,95894.56
2023-04-09T10:39:45.583Z,95893.13
2023-04-09T10:42:16.004Z,95892.53
2023-04-09T10:44:42.759Z,95887.63
2023-04-09T10:47:10.564Z,95881.06
2023-04-09T10:49:38.205Z,95888.13
2023-04-09T10:52:07.111Z,95883.28
2023-04-09T10:54:34.940Z,95883.28
2023-04-09T10:57:07.502Z,95881.72
2023-04-09T10:59:35.316Z,95879.97
2023-04-09T11:02:02.345Z,95894.50
2023-04-09T11:04:52.803Z,95888.69
2023-04-09T11:07:22.207Z,95889.22
2023-04-09T11:09:48.833Z,95881.66
2023-04-09T11:12:15.366Z,95884.94
2023-04-09T11:14:41.872Z,95885.34
2023-04-09T11:17:08.391Z,95884.16
2023-04-09T11:19:35.297Z,95884.97
2023-04-09T11:22:06.484Z,95878.69
2023-04-09T11:24:43.403Z,95874.94
2023-04-09T11:27:10.105Z,95879.50
2023-04-09T11:29:36.684Z,95878.09
2023-04-09T11:32:05.302Z,95880.25
2023-04-09T11:34:32.526Z,95878.19
2023-04-09T11:36:59.843Z,95877.63
2023-04-09T11:39:26.489Z,95891.44
2023-04-09T11:41:53.249Z,95883.63
2023-04-09T11:44:21.581Z,95889.06
2023-04-09T11:46:50.120Z,95882.41
2023-04-09T11:49:17.286Z,95892.38
2023-04-09T11:51:43.924Z,95888.84
2023-04-09T11:54:12.098Z,95887.63
2023-04-09T11:56:38.635Z,95899.53
2023-04-09T11:59:05.500Z,95893.06
2023-04-09T12:01:33.370Z,95904.47
2023-04-09T12:04:00.899Z,95902.25
2023-04-09T12:06:28.482Z,95899.34
2023-04-09T12:08:59.269Z,95901.31
2023-04-09T12:11:31.219Z,95904.81
2023-04-09T12:14:04.662Z,95907.66
2023-04-09T12:16:32.893Z,95903.22
2023-04-09T12:19:10.322Z,95900.28
2023-04-09T12:21:49.218Z,95920.03
2023-04-09T12:24:20.182Z,95910.16
2023-04-09T12:26:47.504Z,95903.31
2023-04-09T12:29:18.995Z,95899.97
2023-04-09T12:31:45.986Z,95894.88
2023-04-09T12:34:13.214Z,95894.59
2023-04-09T12:36:41.592Z,95891.66
2023-04-09T12:39:10.966Z,95888.31
2023-04-09T12:41:37.661Z,95888.09
2023-04-09T12:44:05.049Z,95890.06
2023-04-09T12:46:32.410Z,95881.34
2023-04-09T12:48:59.286Z,95878.69
2023-04-09T12:51:25.835Z,95883.59
2023-04-09T12:53:52.637Z,95884.03
2023-04-09T12:56:19.653Z,95877.78
2023-04-09T12:58:46.198Z,95887.06
2023-04-09T13:01:12.907Z,95890.03
2023-04-09T13:03:41.142Z,95880.13
2023-04-09T13:06:08.424Z,95882.06
2023-04-09T13:08:34.969Z,95866.78
2023-04-09T13:11:01.681Z,95875.16
2023-04-09T13:13:28.669Z,95852.69
2023-04-09T13:15:55.437Z,95867.75
2023-04-09T13:18:21.971Z,95866.47
2023-04-09T13:20:48.548Z,95867.63
2023-04-09T13:23:15.446Z,95874.69
2023-04-09T13:25:42.008Z,95880.50
2023-04-09T13:28:08.549Z,95873.59
2023-04-09T13:30:35.509Z,95873.94
2023-04-09T13:33:02.375Z,95887.25
2023-04-09T13:35:30.614Z,95881.38
2023-04-09T13:37:57.191Z,95878.50
2023-04-09T13:40:23.887Z,95875.31
2023-04-09T13:42:50.389Z,95865.97
2023-04-09T13:45:17.811Z,95873.88
2023-04-09T13:47:44.372Z,95874.34
2023-04-09T13:50:12.960Z,95872.38
2023-04-09T13:52:39.510Z,95872.88
2023-04-09T13:55:07.508Z,95868.94
2023-04-09T13:57:34.053Z,95875.00
2023-04-09T14:00:04.158Z,95874.28
2023-04-09T14:02:32.030Z,95868.69
2023-04-09T14:04:58.710Z,95866.19
2023-04-09T14:07:25.365Z,95858.47
2023-04-09T14:09:51.917Z,95855.03
2023-04-09T14:12:19.298Z,95856.19
2023-04-09T14:14:46.060Z,95847.09
2023-04-09T14:17:12.585Z,95844.25
2023-04-09T14:19:39.172Z,95849.38
2023-04-09T14:22:07.227Z,95848.59
2023-04-09T14:24:39.575Z,95846.25
2023-04-09T14:27:07.555Z,95843.22
2023-04-09T14:29:34.461Z,95845.19
2023-04-09T14:32:01.200Z,95854.69
2023-04-09T14:34:31.126Z,95851.16
2023-04-09T14:36:57.955Z,95857.81
2023-04-09T14:39:24.726Z,95862.25
2023-04-09T14:41:51.838Z,95850.63
2023-04-09T14:44:18.397Z,95836.03
2023-04-09T14:46:44.996Z,95838.47
2023-04-09T14:49:11.601Z,95830.47
2023-04-09T14:51:38.243Z,95837.69
2023-04-09T14:54:04.845Z,95844.38
2023-04-09T14:56:31.349Z,95832.47
2023-04-09T14:58:57.890Z,95836.41
2023-04-09T15:01:26.044Z,95836.22
2023-04-09T15:03:52.802Z,95829.72
2023-04-09T15:06:19.492Z,95837.63
2023-04-09T15:08:46.096Z,95830.56
2023-04-09T15:11:17.038Z,95837.25
2023-04-09T15:13:43.620Z,95841.28
2023-04-09T15:16:10.829Z,95852.94
2023-04-09T15:18:37.483Z,95836.16
2023-04-09T15:21:04.191Z,95840.44
2023-04-09T15:23:30.986Z,95840.94
2023-04-09T15:25:57.540Z,95840.41
2023-04-09T15:28:24.059Z,95839.47
2023-04-09T15:30:50.876Z,95841.66
2023-04-09T15:33:17.386Z,95835.97
2023-04-09T15:35:43.923Z,95839.56
2023-04-09T15:38:10.532Z,95839.38
2023-04-09T15:40:37.024Z,95834.13
2023-04-09T15:43:03.552Z,95837.31
2023-04-09T15:45:30.269Z,95831.06
2023-04-09T15:47:56.859Z,95834.94
2023-04-09T15:50:23.550Z,95830.00
2023-04-09T15:52:50.632Z,95836.03
2023-04-09T15:55:17.180Z,95840.91
2023-04-09T15:57:46.746Z,95833.84
2023-04-09T16:00:13.447Z,95831.66
2023-04-09T16:02:40.768Z,95844.28
2023-04-09T16:05:07.662Z,95847.44
2023-04-09T16:07:34.295Z,95842.53
2023-04-09T16:10:01.714Z,95846.97
2023-04-09T16:12:28.279Z,95837.16
2023-04-09T16:14:54.811Z,95842.03
2023-04-09T16:17:21.333Z,95845.03
2023-04-09T16:19:47.906Z,95846.97
2023-04-09T16:22:14.460Z,95844.66
2023-04-09T16:24:40.993Z,95847.69
2023-04-09T16:27:07.525Z,95842.72
2023-04-09T16:29:34.246Z,95849.44
2023-04-09T16:32:01.139Z,95839.06
2023-04-09T16:34:27.777Z,95837.91
2023-04-09T16:36:54.305Z,95837.44
2023-04-09T16:39:21.020Z,95842.53
2023-04-09T16:41:47.595Z,95840.56
2023-04-09T16:44:14.082Z,95845.34
2023-04-09T16:46:40.707Z,95846.50
2023-04-09T16:49:07.230Z,95843.91
2023-04-09T16:51:33.874Z,95846.34
2023-04-09T16:54:00.819Z,95833.31
2023-04-09T16:56:27.510Z,95836.78
2023-04-09T16:58:55.206Z,95835.16
2023-04-09T17:01:22.056Z,95844.34
2023-04-09T17:03:51.803Z,95846.97
2023-04-09T17:06:18.436Z,95842.38
2023-04-09T17:08:45.625Z,95838.41
2023-04-09T17:11:16.138Z,95840.22
2023-04-09T17:13:42.753Z,95846.31
2023-04-09T17:16:11.312Z,95849.84
2023-04-09T17:18:38.041Z,95857.09
2023-04-09T17:21:04.932Z,95847.41
2023-04-09T17:23:31.511Z,95846.91
2023-04-09T17:25:59.997Z,95851.88
2023-04-09T17:28:26.546Z,95851.53
2023-04-09T17:30:53.124Z,95848.06
2023-04-09T17:33:19.711Z,95846.91
2023-04-09T17:35:46.342Z,95855.66
2023-04-09T17:38:17.145Z,95857.63
2023-04-09T17:40:43.726Z,95855.31
2023-04-09T17:43:10.303Z,95851.00
2023-04-09T17:45:36.878Z,95859.03
2023-04-09T17:48:03.580Z,95865.44
2023-04-09T17:50:30.149Z,95864.25
2023-04-09T17:52:57.221Z,95864.25
2023-04-09T17:55:23.862Z,95865.72
2023-04-09T17:57:50.485Z,95864.34
2023-04-09T18:00:17.156Z,95867.63
2023-04-09T18:02:46.932Z,95870.91
2023-04-09T18:05:13.821Z,95872.66
2023-04-09T18:07:40.467Z,95879.38
2023-04-09T18:10:07.555Z,95880.16
2023-04-09T18:12:34.139Z,95883.31
2023-04-09T18:15:00.650Z,95884.41
2023-04-09T18:17:27.373Z,95882.78
2023-04-09T18:19:54.886Z,95886.31
2023-04-09T18:22:21.769Z,95883.50
2023-04-09T18:24:49.478Z,95886.28
2023-04-09T18:27:17.654Z,95887.22
2023-04-09T18:29:44.250Z,95891.09
2023-04-09T18:32:10.799Z,95890.91
2023-04-09T18:34:38.088Z,95892.81
2023-04-09T18:37:04.663Z,95889.47
2023-04-09T18:39:31.658Z,95902.72
2023-04-09T18:41:58.415Z,95901.66
2023-04-09T18:44:24.954Z,95902.25
2023-04-09T18:46:52.100Z,95906.69
2023-04-09T18:49:18.705Z,95915.84
2023-04-09T18:51:45.264Z,95914.94
2023-04-09T18:54:11.796Z,95917.94
2023-04-09T18:56:38.359Z,95913.22
2023-04-09T18:59:04.896Z,95921.19
2023-04-09T19:01:31.703Z,95918.47
2023-04-09T19:03:58.382Z,95926.25
2023-04-09T19:06:25.763Z,95931.69
2023-04-09T19:08:58.139Z,95933.47
2023-04-09T19:11:26.020Z,95935.31
2023-04-09T19:13:52.697Z,95933.66
2023-04-09T19:16:20.648Z,95932.19
2023-04-09T19:18:47.680Z,95939.66
2023-04-09T19:21:14.285Z,95937.88
2023-04-09T19:23:41.193Z,95933.75
2023-04-09T19:26:07.734Z,95933.63
2023-04-09T19:28:34.472Z,95934.63
2023-04-09T19:31:03.431Z,95938.50
2023-04-09T19:33:30.561Z,95938.25
2023-04-09T19:35:57.189Z,95932.59
2023-04-09T19:38:23.801Z,95939.47
2023-04-09T19:40:50.325Z,95931.63
2023-04-09T19:43:16.884Z,95928.31
2023-04-09T19:45:43.546Z,95933.41
2023-04-09T19:48:10.522Z,95934.50
2023-04-09T19:50:38.408Z,95935.06
2023-04-09T19:53:05.936Z,95933.31
2023-04-09T19:55:33.451Z,95935.22
2023-04-09T19:58:00.106Z,95934.81
2023-04-09T20:00:28.112Z,95931.66
2023-04-09T20:02:55.289Z,95940.19
2023-04-09T20:05:22.444Z,95945.44
2023-04-09T20:07:50.245Z,95933.03
2023-04-09T20:10:17.151Z,95943.47
2023-04-09T20:12:47.425Z,95945.56
2023-04-09T20:15:14.355Z,95937.28
2023-04-09T20:17:41.779Z,95933.00
2023-04-09T20:20:08.858Z,95939.31
2023-04-09T20:22:35.496Z,95942.50
2023-04-09T20:25:02.170Z,95932.16
2023-04-09T20:27:28.828Z,95938.63
2023-04-09T20:29:55.383Z,95936.81
2023-04-09T20:32:22.876Z,95936.13
2023-04-09T20:34:49.628Z,95932.81
2023-04-09T20:37:16.245Z,95929.94
2023-04-09T20:39:42.800Z,95930.31
2023-04-09T20:42:09.364Z,95935.41
2023-04-09T20:44:36.138Z,95927.25
2023-04-09T20:47:02.727Z,95930.66
2023-04-09T20:49:29.403Z,95934.00
2023-04-09T20:51:56.719Z,95938.09
2023-04-09T20:54:23.299Z,95927.50
2023-04-09T20:56:50.143Z,95939.25
2023-04-09T20:59:17.190Z,95936.88
2023-04-09T21:01:44.085Z,95942.53
2023-04-09T21:04:11.287Z,95942.59
2023-04-09T21:06:37.853Z,95942.47
2023-04-09T21:09:04.370Z,95945.59
2023-04-09T21:11:31.171Z,95945.13
2023-04-09T21:13:58.221Z,95943.75
2023-04-09T21:16:27.345Z,95947.03
2023-04-09T21:18:54.246Z,95946.19
2023-04-09T21:21:21.318Z,95946.41
2023-04-09T21:23:47.844Z,95949.38
2023-04-09T21:26:15.017Z,95945.97
2023-04-09T21:28:41.613Z,95940.91
2023-04-09T21:31:10.856Z,95944.06
2023-04-09T21:33:39.029Z,95934.56
2023-04-09T21:36:07.624Z,95938.94
2023-04-09T21:38:34.471Z,95949.34
2023-04-09T21:41:01.682Z,95933.94
2023-04-09T21:43:29.184Z,95936.47
2023-04-09T21:45:59.301Z,95937.56
2023-04-09T21:48:26.696Z,95930.22
2023-04-09T21:50:53.250Z,95934.97
2023-04-09T21:53:19.907Z,95938.66
2023-04-09T21:55:47.041Z,95945.06
2023-04-09T21:58:13.643Z,95942.44
2023-04-09T22:00:40.551Z,95939.28
2023-04-09T22:03:07.416Z,95947.81
2023-04-09T22:05:36.776Z,95946.28
2023-04-09T22:08:03.324Z,95943.72
2023-04-09T22:10:30.032Z,95955.34
2023-04-09T22:12:56.653Z,95951.69
2023-04-09T22:15:23.177Z,95955.72
2023-04-09T22:17:49.741Z,95960.97
2023-04-09T22:20:16.564Z,95967.84
2023-04-09T22:22:43.260Z,95965.13
2023-04-09T22:25:11.620Z,95974.91
2023-04-09T22:27:38.339Z,95967.41
2023-04-09T22:30:06.286Z,95966.97
2023-04-09T22:32:33.422Z,95965.53
2023-04-09T22:35:00.195Z,95968.16
2023-04-09T22:37:27.642Z,95961.53
2023-04-09T22:39:54.200Z,95967.38
2023-04-09T22:42:20.772Z,95967.75
2023-04-09T22:44:47.343Z,95969.38
2023-04-09T22:47:13.909Z,95969.16
2023-04-09T22:49:40.463Z,95966.06
2023-04-09T22:52:08.298Z,95965.69
2023-04-09T22:54:34.909Z,95961.75
2023-04-09T22:57:01.898Z,95955.03
2023-04-09T22:59:37.233Z,95956.94
2023-04-09T23:02:06.634Z,95957.53
2023-04-09T23:04:34.710Z,95951.00
2023-04-09T23:07:02.161Z,95953.97
2023-04-09T23:09:30.228Z,95954.22
2023-04-09T23:11:57.073Z,95949.59
2023-04-09T23:14:23.601Z,95952.22
2023-04-09T23:16:50.341Z,95941.41
2023-04-09T23:19:16.864Z,95940.00
2023-04-09T23:21:43.487Z,95934.56
2023-04-09T23:24:10.278Z,95944.88
2023-04-09T23:26:36.781Z,95940.72
2023-04-09T23:29:03.355Z,95941.91
2023-04-09T23:31:29.908Z,95939.66
2023-04-09T23:33:56.649Z,95933.97
2023-04-09T23:36:24.227Z,95932.56
2023-04-09T23:38:50.863Z,95940.25
2023-04-09T23:41:17.438Z,95932.88
2023-04-09T23:43:44.182Z,95937.88
2023-04-09T23:46:10.821Z,95939.06
2023-04-09T23:48:37.380Z,95933.63
2023-04-09T23:51:04.104Z,95923.19
2023-04-09T23:53:30.690Z,95922.59
2023-04-09T23:55:57.192Z,95923.66
2023-04-09T23:58:23.796Z,95920.34
